Time;durP1;ratioP1;P1;durP2;ratioP2;P2;SDS_P1;SDS_P2;PMS_P1;PMS_P2;Temp;Humidity;BMP_temperature;BMP_pressure;BME280_temperature;BME280_humidity;BME280_pressure;Samples;Min_cycle;Max_cycle;Signal;HPM_P1;HPM_P2
2021/01/27 00:00:31;;;;;;;11.03;7.35;;;;;;;-0.20;70.87;98515.09;1748856;81;21155;-67
2021/01/27 00:03:01;;;;;;;12.63;6.90;;;;;;;-0.20;70.46;98516.39;1758626;81;21172;-68
2021/01/27 00:05:36;;;;;;;10.72;7.72;;;;;;;-0.21;70.81;98526.44;1748290;81;21309;-68
2021/01/27 00:08:05;;;;;;;12.60;7.55;;;;;;;-0.18;71.09;98525.86;1730380;81;22257;-68
2021/01/27 00:10:33;;;;;;;11.45;6.90;;;;;;;-0.17;71.13;98522.30;1725222;81;21132;-68
2021/01/27 00:13:01;;;;;;;11.08;7.35;;;;;;;-0.17;70.84;98526.20;1723632;81;21287;-67
2021/01/27 00:15:33;;;;;;;10.78;7.55;;;;;;;-0.21;70.93;98527.73;1746168;81;21199;-67
2021/01/27 00:18:02;;;;;;;8.53;5.37;;;;;;;-0.24;71.11;98524.05;1752263;81;21174;-68
2021/01/27 00:20:30;;;;;;;11.38;6.90;;;;;;;-0.27;71.08;98529.45;1747346;81;21622;-67
2021/01/27 00:22:59;;;;;;;11.68;7.58;;;;;;;-0.33;70.66;98530.36;1756756;81;21595;-68
2021/01/27 00:25:30;;;;;;;11.80;7.28;;;;;;;-0.38;71.05;98532.45;1752849;81;21136;-67
2021/01/27 00:27:58;;;;;;;11.18;6.78;;;;;;;-0.46;71.06;98535.10;1754903;81;21575;-67
2021/01/27 00:30:34;;;;;;;10.00;6.45;;;;;;;-0.48;71.24;98536.16;1743027;81;21615;-68
2021/01/27 00:33:03;;;;;;;11.90;7.60;;;;;;;-0.50;71.48;98526.34;1755516;81;21185;-68
2021/01/27 00:35:36;;;;;;;10.65;7.45;;;;;;;-0.51;71.73;98518.17;1756353;81;21180;-68
2021/01/27 00:38:11;;;;;;;11.25;7.55;;;;;;;-0.51;72.08;98515.58;1757318;81;21141;-68
2021/01/27 00:41:05;;;;;;;10.75;7.42;;;;;;;-0.50;72.68;98508.98;1802584;78;23576;-68
2021/01/27 00:43:32;;;;;;;12.23;7.90;;;;;;;-0.56;73.14;98517.21;1764914;80;21591;-68
2021/01/27 00:46:00;;;;;;;13.98;8.20;;;;;;;-0.58;73.43;98511.27;1775266;80;21151;-68
2021/01/27 00:48:28;;;;;;;11.75;7.35;;;;;;;-0.61;73.70;98519.28;1789847;80;21821;-68
2021/01/27 00:50:55;;;;;;;11.78;7.97;;;;;;;-0.63;73.46;98509.47;1681351;83;21196;-68
2021/01/27 00:53:25;;;;;;;11.60;7.25;;;;;;;-0.65;73.47;98509.58;1719514;83;21318;-68
2021/01/27 00:55:53;;;;;;;12.23;7.78;;;;;;;-0.67;73.39;98508.03;1697459;84;21212;-67
2021/01/27 00:58:21;;;;;;;11.50;7.70;;;;;;;-0.70;73.62;98503.86;1721613;83;21188;-68
2021/01/27 01:00:51;;;;;;;9.88;7.22;;;;;;;-0.73;73.64;98497.60;1692381;84;21184;-68
2021/01/27 01:03:21;;;;;;;14.85;8.00;;;;;;;-0.75;73.89;98503.34;1707217;84;21267;-67
2021/01/27 01:05:49;;;;;;;13.78;7.45;;;;;;;-0.79;73.51;98501.89;1707793;84;21317;-68
2021/01/27 01:08:17;;;;;;;11.25;7.65;;;;;;;-0.84;73.92;98493.14;1663536;83;21604;-67
2021/01/27 01:10:53;;;;;;;10.78;7.42;;;;;;;-0.84;74.08;98500.07;1683871;84;21148;-68
2021/01/27 01:13:24;;;;;;;13.93;8.05;;;;;;;-0.85;73.95;98495.83;1684365;84;21176;-68
2021/01/27 01:15:52;;;;;;;11.33;7.62;;;;;;;-0.87;74.03;98501.13;1709168;84;21184;-68
2021/01/27 01:18:20;;;;;;;12.82;7.80;;;;;;;-0.88;73.99;98492.14;1719574;83;21224;-68
2021/01/27 01:20:49;;;;;;;13.58;8.18;;;;;;;-0.90;74.17;98496.12;1693455;84;21211;-68
2021/01/27 01:23:19;;;;;;;11.95;7.42;;;;;;;-0.90;74.46;98498.72;1699226;84;21211;-68
2021/01/27 01:25:47;;;;;;;13.08;8.28;;;;;;;-0.92;74.39;98498.00;1722530;83;21188;-68
2021/01/27 01:28:15;;;;;;;11.00;7.85;;;;;;;-0.90;74.49;98492.23;1707794;84;21203;-69
2021/01/27 01:30:45;;;;;;;13.13;7.72;;;;;;;-0.90;74.40;98496.12;1712179;84;21211;-69
2021/01/27 01:33:22;;;;;;;11.75;7.72;;;;;;;-0.91;74.55;98492.37;1706616;84;21160;-68
2021/01/27 01:35:50;;;;;;;10.70;6.97;;;;;;;-0.91;74.40;98484.58;1708920;84;21613;-69
2021/01/27 01:38:19;;;;;;;11.75;7.62;;;;;;;-0.92;74.26;98475.13;1708293;84;21619;-69
2021/01/27 01:40:52;;;;;;;13.78;8.40;;;;;;;-0.93;74.44;98470.88;1716659;83;21183;-69
2021/01/27 01:43:37;;;;;;;13.20;8.15;;;;;;;-0.98;74.44;98466.80;1698919;84;21751;-68
2021/01/27 01:46:18;;;;;;;13.22;8.35;;;;;;;-0.98;74.46;98466.80;1706987;84;21743;-68
2021/01/27 01:48:51;;;;;;;11.75;7.62;;;;;;;-0.99;74.69;98457.86;1679042;84;21164;-68
2021/01/27 01:51:41;;;;;;;12.00;8.50;;;;;;;-1.00;74.92;98464.78;1707167;84;21282;-68
2021/01/27 01:54:28;;;;;;;14.13;8.48;;;;;;;-0.99;74.83;98465.64;1707107;84;21366;-68
2021/01/27 01:56:59;;;;;;;13.25;8.35;;;;;;;-1.00;74.92;98461.37;1706704;84;21191;-68
2021/01/27 01:59:29;;;;;;;13.90;8.90;;;;;;;-0.98;74.64;98459.02;1706559;84;21223;-68
2021/01/27 02:02:06;;;;;;;13.08;7.40;;;;;;;-0.99;74.79;98457.38;1684670;83;21179;-68
2021/01/27 02:04:42;;;;;;;13.10;8.50;;;;;;;-1.00;74.91;98451.81;1693374;84;21522;-68
2021/01/27 02:07:10;;;;;;;12.68;8.15;;;;;;;-1.00;74.92;98449.22;1690813;84;21161;-68
2021/01/27 02:09:39;;;;;;;12.40;8.10;;;;;;;-1.00;75.25;98446.63;1693265;84;21192;-68
2021/01/27 02:12:29;;;;;;;15.85;8.93;;;;;;;-0.99;75.18;98442.28;1722760;83;21573;-68
2021/01/27 02:15:24;;;;;;;15.03;9.10;;;;;;;-1.01;75.24;98448.88;1707129;84;21199;-68
2021/01/27 02:18:33;;;;;;;12.82;8.50;;;;;;;-1.05;75.44;98447.42;1706897;84;21224;-68
2021/01/27 02:21:42;;;;;;;15.43;9.03;;;;;;;-1.03;75.47;98451.19;1707130;84;21179;-68
2021/01/27 02:24:58;;;;;;;14.68;8.93;;;;;;;-1.07;75.68;98449.27;1718305;83;21196;-68
2021/01/27 02:27:37;;;;;;;13.95;8.45;;;;;;;-1.05;75.88;98456.51;1685777;84;21212;-68
2021/01/27 02:30:28;;;;;;;15.43;9.70;;;;;;;-1.05;76.08;98447.42;1693277;84;21176;-68
2021/01/27 02:33:20;;;;;;;16.77;9.50;;;;;;;-1.04;76.23;98448.25;1721698;83;21212;-68
2021/01/27 02:36:09;;;;;;;16.55;9.50;;;;;;;-1.07;76.52;98443.26;1712875;83;21623;-67
2021/01/27 02:38:54;;;;;;;15.93;9.60;;;;;;;-1.06;76.81;98439.27;1702690;83;21180;-68
2021/01/27 02:41:39;;;;;;;15.53;9.25;;;;;;;-1.08;76.79;98439.84;1717071;83;21174;-67
2021/01/27 02:44:12;;;;;;;14.98;10.05;;;;;;;-1.09;77.00;98444.66;1715177;83;21222;-67
2021/01/27 02:46:53;;;;;;;15.78;9.43;;;;;;;-1.12;77.11;98438.84;1698494;83;21129;-67
2021/01/27 02:49:36;;;;;;;14.50;9.08;;;;;;;-1.13;77.29;98438.50;1723039;83;21298;-67
2021/01/27 02:52:14;;;;;;;16.67;9.20;;;;;;;-1.15;77.53;98442.48;1656777;83;21228;-67
2021/01/27 02:55:01;;;;;;;18.23;9.85;;;;;;;-1.14;77.77;98449.34;1703327;83;21167;-67
2021/01/27 02:57:48;;;;;;;13.25;8.78;;;;;;;-1.11;77.89;98444.41;1715822;83;21583;-68
2021/01/27 03:00:28;;;;;;;16.50;9.25;;;;;;;-1.09;77.60;98451.62;1721005;83;21192;-68
2021/01/27 03:03:06;;;;;;;14.83;9.20;;;;;;;-1.11;77.68;98442.63;1719444;83;21592;-68
2021/01/27 03:05:45;;;;;;;16.00;9.73;;;;;;;-1.10;77.85;98444.78;1722071;83;21195;-68
2021/01/27 03:08:26;;;;;;;14.25;9.55;;;;;;;-1.08;77.95;98447.63;1685685;83;21321;-68
2021/01/27 03:11:18;;;;;;;14.83;9.05;;;;;;;-1.07;78.08;98443.26;1711366;83;21583;-68
2021/01/27 03:13:46;;;;;;;15.78;9.25;;;;;;;-1.04;78.07;98441.77;1698259;83;21350;-68
2021/01/27 03:16:26;;;;;;;13.98;8.88;;;;;;;-1.01;78.12;98436.34;1723654;83;21151;-67
2021/01/27 03:19:12;;;;;;;15.13;9.55;;;;;;;-0.98;78.26;98434.84;1714568;83;21168;-68
2021/01/27 03:21:51;;;;;;;15.80;9.53;;;;;;;-0.98;78.01;98436.96;1682985;83;21608;-68
2021/01/27 03:24:53;;;;;;;15.32;9.35;;;;;;;-0.95;77.98;98424.70;1794997;78;23479;-68
2021/01/27 03:27:30;;;;;;;14.45;9.23;;;;;;;-1.01;78.03;98430.70;1781222;80;21699;-68
2021/01/27 03:29:59;;;;;;;15.25;8.98;;;;;;;-1.01;78.13;98426.81;1791554;80;21179;-68
2021/01/27 03:32:47;;;;;;;15.13;10.00;;;;;;;-1.00;78.35;98419.38;1775404;80;21583;-68
2021/01/27 03:35:47;;;;;;;14.45;9.68;;;;;;;-0.99;78.35;98409.36;1780217;80;21693;-68
2021/01/27 03:38:36;;;;;;;18.57;9.28;;;;;;;-0.98;78.68;98408.41;1726164;83;21225;-68
2021/01/27 03:41:21;;;;;;;15.98;10.40;;;;;;;-0.92;78.54;98412.83;1700670;82;21142;-68
2021/01/27 03:44:10;;;;;;;15.68;9.55;;;;;;;-0.93;78.46;98407.29;1706922;81;21156;-68
2021/01/27 03:46:58;;;;;;;16.65;10.28;;;;;;;-0.94;78.40;98412.92;1696031;83;21212;-68
2021/01/27 03:49:40;;;;;;;16.73;10.32;;;;;;;-0.93;78.68;98420.27;1725819;81;21739;-68
2021/01/27 03:52:17;;;;;;;16.52;10.40;;;;;;;-0.91;78.84;98430.07;1710232;83;21190;-68
2021/01/27 03:55:00;;;;;;;14.87;9.55;;;;;;;-0.86;78.66;98429.27;1727472;83;21193;-68
2021/01/27 03:57:35;;;;;;;15.08;9.90;;;;;;;-0.84;78.50;98431.28;1717753;83;21187;-68
2021/01/27 04:00:07;;;;;;;15.55;10.30;;;;;;;-0.83;78.37;98430.36;1683724;83;21152;-68
2021/01/27 04:02:37;;;;;;;14.53;8.93;;;;;;;-0.84;78.29;98429.98;1724950;83;21212;-68
2021/01/27 04:05:08;;;;;;;15.50;9.25;;;;;;;-0.87;78.57;98428.44;1721589;83;21307;-68
2021/01/27 04:07:35;;;;;;;18.92;10.32;;;;;;;-0.85;78.38;98437.42;1695917;83;21187;-68
2021/01/27 04:10:04;;;;;;;13.45;8.80;;;;;;;-0.88;78.45;98436.33;1725630;83;21333;-67
2021/01/27 04:12:31;;;;;;;14.93;9.75;;;;;;;-0.89;78.52;98439.88;1720950;83;21256;-68
2021/01/27 04:14:59;;;;;;;15.43;9.63;;;;;;;-0.90;78.60;98431.72;1714555;83;21178;-67
2021/01/27 04:17:29;;;;;;;14.58;9.60;;;;;;;-0.91;78.82;98426.18;1698591;83;21136;-68
2021/01/27 04:19:58;;;;;;;14.68;9.23;;;;;;;-0.90;78.89;98426.52;1719228;83;21212;-67
2021/01/27 04:22:26;;;;;;;18.42;9.50;;;;;;;-0.91;78.88;98435.27;1727304;83;21692;-67
2021/01/27 04:24:53;;;;;;;15.53;10.15;;;;;;;-0.92;78.97;98434.89;1714532;83;21179;-67
2021/01/27 04:27:23;;;;;;;15.85;10.35;;;;;;;-0.91;79.00;98436.09;1722343;83;21357;-67
2021/01/27 04:29:52;;;;;;;15.55;10.05;;;;;;;-0.91;79.33;98443.88;1727315;83;21335;-67
2021/01/27 04:32:21;;;;;;;25.30;11.12;;;;;;;-0.90;79.50;98440.33;1719348;83;21338;-67
2021/01/27 04:34:50;;;;;;;15.28;9.85;;;;;;;-0.87;79.50;98440.13;1712441;83;21181;-68
2021/01/27 04:37:18;;;;;;;16.05;10.45;;;;;;;-0.86;79.53;98447.44;1725597;83;21624;-67
2021/01/27 04:39:46;;;;;;;16.10;10.63;;;;;;;-0.85;79.50;98446.52;1724882;83;21320;-67
2021/01/27 04:42:14;;;;;;;18.60;10.98;;;;;;;-0.85;79.58;98439.55;1732956;81;21281;-67
2021/01/27 04:44:42;;;;;;;15.60;10.20;;;;;;;-0.85;79.74;98442.62;1759693;81;21167;-67
2021/01/27 04:47:30;;;;;;;17.25;10.70;;;;;;;-0.83;79.61;98440.74;1739649;81;21158;-68
2021/01/27 04:50:06;;;;;;;16.48;10.60;;;;;;;-0.84;79.71;98445.56;1755037;81;21563;-68
2021/01/27 04:52:54;;;;;;;17.67;11.40;;;;;;;-0.84;79.78;98445.56;1754566;81;21200;-68
2021/01/27 04:55:34;;;;;;;17.10;10.78;;;;;;;-0.85;79.69;98447.33;1677485;84;21596;-68
2021/01/27 04:58:14;;;;;;;18.07;10.88;;;;;;;-0.86;79.96;98446.14;1702560;83;21175;-69
2021/01/27 05:01:19;;;;;;;18.17;11.48;;;;;;;-0.88;79.85;98448.02;1740744;81;21174;-67
2021/01/27 05:03:59;;;;;;;16.55;10.30;;;;;;;-0.91;80.13;98448.24;1722150;81;21361;-67
2021/01/27 05:06:31;;;;;;;17.87;10.68;;;;;;;-0.92;80.36;98451.76;1736744;81;21178;-67
2021/01/27 05:09:35;;;;;;;16.02;10.75;;;;;;;-0.94;80.21;98454.45;1762754;81;21176;-67
2021/01/27 05:12:05;;;;;;;17.00;10.85;;;;;;;-0.97;80.35;98459.88;1756169;81;21159;-68
2021/01/27 05:14:33;;;;;;;18.98;11.08;;;;;;;-0.98;80.78;98453.02;1649482;84;21172;-69
2021/01/27 05:17:06;;;;;;;19.25;11.08;;;;;;;-0.99;81.01;98454.78;1681218;84;21677;-67
2021/01/27 05:19:34;;;;;;;17.07;10.85;;;;;;;-0.99;81.10;98450.89;1743729;81;21155;-68
2021/01/27 05:22:04;;;;;;;19.32;11.78;;;;;;;-0.98;81.26;98459.50;1681468;84;21323;-68
2021/01/27 05:24:31;;;;;;;16.67;11.20;;;;;;;-0.98;81.42;98466.80;1656167;84;21170;-68
2021/01/27 05:27:08;;;;;;;17.10;11.48;;;;;;;-0.97;81.61;98465.06;1747126;81;21333;-67
2021/01/27 05:29:43;;;;;;;18.40;10.90;;;;;;;-0.95;81.42;98471.42;1650393;85;21173;-67
2021/01/27 05:32:18;;;;;;;17.77;11.60;;;;;;;-0.94;81.46;98475.22;1708029;83;21350;-69
2021/01/27 05:34:49;;;;;;;19.52;11.45;;;;;;;-0.94;81.37;98476.52;1707597;83;21596;-69
2021/01/27 05:37:31;;;;;;;18.30;11.83;;;;;;;-0.95;81.39;98476.61;1745811;81;21266;-69
2021/01/27 05:40:33;;;;;;;19.15;11.53;;;;;;;-0.97;81.50;98481.94;1677279;84;21151;-68
2021/01/27 05:43:16;;;;;;;18.33;11.80;;;;;;;-0.96;81.85;98484.05;1658226;84;21176;-68
2021/01/27 05:45:49;;;;;;;20.43;12.15;;;;;;;-0.95;81.99;98484.40;1709406;81;21310;-68
2021/01/27 05:48:33;;;;;;;19.92;12.40;;;;;;;-0.96;82.42;98496.55;1757351;81;21588;-68
2021/01/27 05:51:11;;;;;;;19.05;12.37;;;;;;;-0.98;82.45;98494.53;1680478;84;21215;-67
2021/01/27 05:53:39;;;;;;;18.80;12.37;;;;;;;-0.94;82.34;98497.75;1705916;83;21357;-69
2021/01/27 05:56:24;;;;;;;21.27;12.35;;;;;;;-0.93;82.34;98489.05;1755288;81;21330;-69
2021/01/27 05:59:02;;;;;;;22.42;12.82;;;;;;;-0.92;82.42;98495.41;1744612;81;21183;-68
2021/01/27 06:01:44;;;;;;;19.37;12.35;;;;;;;-0.92;82.39;98496.70;1729887;81;21364;-69
2021/01/27 06:04:23;;;;;;;22.52;13.30;;;;;;;-0.95;82.63;98494.34;1744949;81;21583;-67
2021/01/27 06:07:00;;;;;;;20.17;12.78;;;;;;;-0.96;82.80;98492.66;1759968;81;21132;-70
2021/01/27 06:09:50;;;;;;;21.85;13.45;;;;;;;-0.96;83.01;98489.25;1745189;81;21112;-68
2021/01/27 06:12:24;;;;;;;24.07;13.95;;;;;;;-0.94;83.43;98487.38;1744899;81;21325;-69
2021/01/27 06:15:10;;;;;;;20.17;12.80;;;;;;;-0.91;83.23;98499.67;1748931;81;21159;-70
2021/01/27 06:17:47;;;;;;;23.60;13.60;;;;;;;-0.90;83.21;98501.80;1752559;81;21166;-69
2021/01/27 06:20:33;;;;;;;21.20;13.70;;;;;;;-0.90;83.21;98503.09;1683645;84;21339;-69
2021/01/27 06:23:21;;;;;;;20.88;13.38;;;;;;;-0.89;83.46;98504.77;1683492;84;21150;-68
2021/01/27 06:26:16;;;;;;;21.40;13.68;;;;;;;-0.86;83.49;98503.24;1756996;81;21187;-70
2021/01/27 06:29:14;;;;;;;21.90;14.07;;;;;;;-0.84;83.50;98510.45;1736400;81;21163;-69
2021/01/27 06:32:29;;;;;;;21.07;13.80;;;;;;;-0.83;83.59;98510.83;1749590;81;21328;-69
2021/01/27 06:35:09;;;;;;;22.25;13.65;;;;;;;-0.81;83.67;98503.77;1758002;81;21158;-69
2021/01/27 06:37:58;;;;;;;21.93;12.78;;;;;;;-0.77;83.78;98502.61;1732873;81;21153;-69
2021/01/27 06:40:55;;;;;;;19.17;11.60;;;;;;;-0.71;83.67;98506.11;1717466;81;21180;-69
2021/01/27 06:43:47;;;;;;;19.57;11.95;;;;;;;-0.68;83.59;98499.39;1762277;81;21615;-68
2021/01/27 06:47:02;;;;;;;22.25;13.75;;;;;;;-0.63;83.27;98504.28;1757202;81;21171;-69
2021/01/27 06:50:03;;;;;;;21.10;13.25;;;;;;;-0.63;83.22;98510.77;1757818;81;21183;-68
2021/01/27 06:53:09;;;;;;;20.20;13.18;;;;;;;-0.59;83.04;98503.95;1711981;81;21596;-70
2021/01/27 06:56:14;;;;;;;23.00;12.90;;;;;;;-0.51;83.16;98503.89;1762117;81;21163;-69
2021/01/27 06:59:19;;;;;;;20.40;13.35;;;;;;;-0.43;82.87;98493.78;1732162;81;21131;-70
2021/01/27 07:02:44;;;;;;;20.88;13.03;;;;;;;-0.34;82.66;98491.84;1752108;81;21758;-69
2021/01/27 07:05:44;;;;;;;21.68;13.05;;;;;;;-0.26;82.07;98484.35;1739225;81;21766;-68
2021/01/27 07:08:36;;;;;;;21.37;13.18;;;;;;;-0.21;80.94;98486.61;1743022;81;21147;-69
2021/01/27 07:11:29;;;;;;;24.52;13.18;;;;;;;-0.22;81.07;98487.56;1723336;81;21160;-69
2021/01/27 07:14:23;;;;;;;20.15;11.43;;;;;;;-0.15;81.00;98490.54;1744139;81;21623;-70
2021/01/27 07:17:16;;;;;;;22.30;13.90;;;;;;;-0.11;79.93;98487.62;1732982;81;21330;-76
2021/01/27 07:19:58;;;;;;;20.60;13.20;;;;;;;-0.13;79.47;98483.46;1728864;82;21576;-74
2021/01/27 07:22:48;;;;;;;22.30;14.10;;;;;;;-0.21;79.80;98484.86;1717362;83;21827;-69
2021/01/27 07:25:37;;;;;;;24.82;15.60;;;;;;;-0.22;80.11;98489.69;1720590;83;21179;-71
2021/01/27 07:28:18;;;;;;;20.15;14.00;;;;;;;-0.15;79.95;98497.03;1712555;83;21264;-70
2021/01/27 07:31:06;;;;;;;23.20;15.70;;;;;;;-0.09;79.40;98500.52;1706739;83;21191;-67
2021/01/27 07:33:49;;;;;;;21.27;14.20;;;;;;;-0.06;79.64;98504.18;1734252;81;21210;-74
2021/01/27 07:37:02;;;;;;;23.70;14.65;;;;;;;0.07;79.43;98489.84;1900207;74;22156;-72
2021/01/27 07:39:50;;;;;;;24.85;15.55;;;;;;;0.05;78.63;98497.74;1885319;75;21776;-76
2021/01/27 07:43:00;;;;;;;23.20;15.15;;;;;;;0.01;78.89;98495.01;1855631;77;21315;-78
2021/01/27 07:45:34;;;;;;;22.15;13.68;;;;;;;0.06;78.77;98491.61;1863731;77;21142;-79
2021/01/27 07:48:22;;;;;;;27.73;16.02;;;;;;;0.14;78.23;98492.36;1857897;77;21159;-78
2021/01/27 07:51:10;;;;;;;24.77;15.32;;;;;;;0.17;78.39;98491.66;1826539;77;21300;-73
2021/01/27 07:53:40;;;;;;;23.52;14.93;;;;;;;0.30;78.11;98486.86;1829990;78;21362;-75
2021/01/27 07:56:42;;;;;;;23.73;15.38;;;;;;;0.43;77.45;98491.98;1819062;78;21197;-74
2021/01/27 07:59:27;;;;;;;23.75;15.08;;;;;;;0.52;77.20;98488.71;1819477;78;21547;-75
2021/01/27 08:02:11;;;;;;;23.95;15.40;;;;;;;0.64;76.92;98484.39;1786881;80;21161;-71
2021/01/27 08:04:49;;;;;;;25.30;15.88;;;;;;;0.75;76.65;98487.02;1783872;80;21228;-71
2021/01/27 08:07:24;;;;;;;23.57;15.23;;;;;;;0.86;75.92;98484.44;1789844;80;21185;-77
2021/01/27 08:09:53;;;;;;;24.65;15.55;;;;;;;0.89;75.61;98489.88;1787807;80;21331;-75
2021/01/27 08:12:31;;;;;;;27.37;16.12;;;;;;;0.94;75.59;98483.85;1780083;79;22483;-79
2021/01/27 08:15:07;;;;;;;26.25;15.90;;;;;;;1.02;75.51;98489.30;1772551;80;21203;-78
2021/01/27 08:17:58;;;;;;;27.58;17.25;;;;;;;1.06;75.16;98484.20;1770870;79;21200;-81
2021/01/27 08:20:38;;;;;;;23.65;15.18;;;;;;;1.10;74.74;98484.32;1762204;80;21339;-76
2021/01/27 08:23:21;;;;;;;23.02;15.43;;;;;;;1.20;74.51;98491.43;1756439;81;21317;-72
2021/01/27 08:26:03;;;;;;;25.50;16.85;;;;;;;1.27;73.65;98492.63;1748755;81;21191;-80
2021/01/27 08:28:43;;;;;;;27.80;15.28;;;;;;;1.30;73.35;98486.70;1780490;79;21714;-75
2021/01/27 08:31:18;;;;;;;28.80;16.90;;;;;;;1.28;72.35;98488.60;1748735;81;21181;-74
2021/01/27 08:33:57;;;;;;;25.80;15.88;;;;;;;1.25;72.60;98488.01;1730546;81;21203;-76
2021/01/27 08:36:36;;;;;;;23.62;15.75;;;;;;;1.31;72.63;98491.43;1758716;81;21215;-78
2021/01/27 08:39:11;;;;;;;24.70;15.15;;;;;;;1.38;72.18;98490.50;1757805;81;22446;-79
2021/01/27 08:41:57;;;;;;;24.10;16.40;;;;;;;1.44;71.95;98484.80;1766127;81;21154;-79
2021/01/27 08:44:38;;;;;;;24.63;16.12;;;;;;;1.52;71.59;98487.66;1771137;81;21178;-79
2021/01/27 08:47:38;;;;;;;27.50;17.27;;;;;;;1.59;71.21;98481.47;1781735;80;21646;-77
2021/01/27 08:50:12;;;;;;;23.87;15.85;;;;;;;1.67;70.88;98486.94;1750863;81;21171;-71
2021/01/27 08:52:41;;;;;;;24.15;15.78;;;;;;;1.73;69.85;98483.35;1806885;79;21131;-72
2021/01/27 08:55:34;;;;;;;22.80;14.87;;;;;;;1.77;69.24;98480.52;1746824;81;21198;-73
2021/01/27 08:58:22;;;;;;;24.18;15.25;;;;;;;1.80;68.81;98486.80;1752073;81;21592;-74
2021/01/27 09:00:54;;;;;;;25.23;14.03;;;;;;;1.84;68.62;98487.72;1769938;80;21186;-79
2021/01/27 09:03:49;;;;;;;23.22;14.63;;;;;;;1.91;68.33;98487.59;1753276;81;21798;-70
2021/01/27 09:06:29;;;;;;;22.05;14.98;;;;;;;2.00;68.23;98489.10;1787751;80;21226;-76
2021/01/27 09:09:23;;;;;;;19.60;13.83;;;;;;;2.06;67.66;98475.59;1754608;81;21163;-71
2021/01/27 09:11:57;;;;;;;20.25;13.35;;;;;;;2.09;67.15;98478.75;1750543;81;21172;-71
2021/01/27 09:14:26;;;;;;;24.75;14.78;;;;;;;2.12;66.74;98477.21;1754122;81;21214;-72
2021/01/27 09:16:54;;;;;;;22.13;14.95;;;;;;;2.16;66.68;98480.89;1787111;80;21602;-73
2021/01/27 09:19:24;;;;;;;26.57;14.85;;;;;;;2.19;66.71;98476.70;1766712;80;21634;-72
2021/01/27 09:22:04;;;;;;;20.95;13.98;;;;;;;2.21;66.34;98479.56;1789629;79;21684;-72
2021/01/27 09:24:46;;;;;;;25.23;14.53;;;;;;;2.22;66.45;98479.90;1785736;80;21154;-72
2021/01/27 09:27:24;;;;;;;20.08;13.93;;;;;;;2.23;66.03;98476.83;1789923;80;21292;-72
2021/01/27 09:30:12;;;;;;;20.45;13.30;;;;;;;2.20;66.09;98479.68;1770615;78;21186;-71
2021/01/27 09:32:41;;;;;;;22.65;13.62;;;;;;;2.17;65.69;98482.53;1756740;80;21198;-71
2021/01/27 09:35:20;;;;;;;19.48;13.18;;;;;;;2.13;65.59;98482.80;1781115;79;21316;-70
2021/01/27 09:37:56;;;;;;;20.57;14.47;;;;;;;2.18;65.44;98486.80;1781491;80;21814;-72
2021/01/27 09:40:36;;;;;;;23.65;14.98;;;;;;;2.17;65.04;98472.94;1785452;80;21198;-72
2021/01/27 09:43:36;;;;;;;23.42;14.15;;;;;;;2.19;65.20;98480.62;1803837;78;22965;-72
2021/01/27 09:46:32;;;;;;;19.65;12.65;;;;;;;2.14;65.25;98475.30;1783840;80;21136;-71
2021/01/27 09:49:10;;;;;;;18.82;12.07;;;;;;;2.14;64.93;98475.30;1796170;80;21202;-73
2021/01/27 09:51:40;;;;;;;18.90;12.40;;;;;;;2.12;64.51;98478.52;1763103;81;21715;-71
2021/01/27 09:54:09;;;;;;;18.57;11.83;;;;;;;2.11;64.44;98471.66;1723272;81;21337;-72
2021/01/27 09:56:37;;;;;;;16.55;11.48;;;;;;;2.11;64.15;98466.45;1757932;81;21374;-72
2021/01/27 09:59:04;;;;;;;17.55;12.25;;;;;;;2.16;63.79;98462.63;1761510;81;21604;-71
2021/01/27 10:01:33;;;;;;;18.50;12.40;;;;;;;2.13;63.41;98462.37;1728932;81;21213;-70
2021/01/27 10:04:10;;;;;;;18.07;11.93;;;;;;;2.12;63.62;98460.74;1755322;81;21140;-70
2021/01/27 10:06:49;;;;;;;20.08;12.07;;;;;;;2.13;63.65;98459.77;1752687;81;21211;-72
2021/01/27 10:09:23;;;;;;;20.08;12.23;;;;;;;2.13;63.50;98453.25;1751678;80;21215;-74
2021/01/27 10:11:59;;;;;;;20.57;11.63;;;;;;;2.16;63.73;98463.45;1753686;81;21698;-79
2021/01/27 10:14:29;;;;;;;18.00;11.85;;;;;;;2.18;63.34;98440.67;1746935;81;21224;-75
2021/01/27 10:17:06;;;;;;;21.37;11.75;;;;;;;2.17;63.21;98442.95;1704234;82;21152;-80
2021/01/27 10:19:49;;;;;;;18.30;10.58;;;;;;;2.19;62.82;98441.49;1756329;81;21588;-77
2021/01/27 10:22:30;;;;;;;18.52;9.38;;;;;;;2.17;62.28;98444.70;1737049;81;21240;-79
2021/01/27 10:25:00;;;;;;;10.82;7.28;;;;;;;2.16;62.18;98439.16;1759742;81;21196;-78
2021/01/27 10:27:40;;;;;;;11.57;7.55;;;;;;;2.18;61.83;98442.46;1740720;81;21215;-74
2021/01/27 10:30:21;;;;;;;11.27;6.40;;;;;;;2.16;61.34;98448.28;1760250;81;21164;-70
2021/01/27 10:32:49;;;;;;;14.50;8.58;;;;;;;2.14;61.34;98447.91;1753683;81;21229;-73
2021/01/27 10:35:27;;;;;;;12.15;8.48;;;;;;;2.15;61.07;98453.95;1746534;81;21639;-72
2021/01/27 10:38:08;;;;;;;14.05;7.90;;;;;;;2.17;60.74;98449.92;1739354;81;21180;-71
2021/01/27 10:40:36;;;;;;;15.23;9.00;;;;;;;2.18;60.77;98447.67;1761875;81;21253;-71
2021/01/27 10:43:15;;;;;;;12.65;8.40;;;;;;;2.21;60.88;98438.28;1740280;81;21327;-69
2021/01/27 10:45:44;;;;;;;10.90;7.75;;;;;;;2.23;60.86;98437.70;1733604;82;21332;-72
2021/01/27 10:48:28;;;;;;;14.60;8.35;;;;;;;2.22;60.73;98438.64;1734406;82;21688;-71
2021/01/27 10:51:06;;;;;;;13.55;8.30;;;;;;;2.23;60.78;98437.70;1734390;82;21160;-71
2021/01/27 10:53:39;;;;;;;13.40;8.43;;;;;;;2.22;60.75;98435.55;1726578;82;21177;-73
2021/01/27 10:56:07;;;;;;;13.72;8.03;;;;;;;2.18;60.86;98428.11;1739520;82;21229;-70
2021/01/27 10:58:35;;;;;;;11.75;7.65;;;;;;;2.14;60.79;98428.35;1716879;82;21160;-71
2021/01/27 11:01:02;;;;;;;17.12;8.83;;;;;;;2.12;60.88;98426.84;1725363;82;21197;-69
2021/01/27 11:03:32;;;;;;;20.25;8.83;;;;;;;2.09;61.23;98424.47;1727892;82;21208;-70
2021/01/27 11:06:00;;;;;;;17.57;8.60;;;;;;;2.07;61.00;98427.67;1740653;82;21553;-71
2021/01/27 11:08:30;;;;;;;15.35;8.85;;;;;;;2.07;60.78;98423.28;1691125;83;21355;-72
2021/01/27 11:11:00;;;;;;;13.10;8.30;;;;;;;2.06;60.70;98422.13;1717190;82;21149;-69
2021/01/27 11:13:30;;;;;;;12.05;8.03;;;;;;;2.03;60.86;98423.19;1700214;82;21141;-70
2021/01/27 11:15:59;;;;;;;13.72;8.03;;;;;;;2.02;61.04;98415.03;1738387;82;21208;-69
2021/01/27 11:18:27;;;;;;;20.45;8.95;;;;;;;2.02;61.01;98412.42;1730799;82;21224;-71
2021/01/27 11:20:55;;;;;;;13.05;8.40;;;;;;;2.02;61.05;98416.78;1726964;82;21327;-72
2021/01/27 11:23:23;;;;;;;16.93;8.33;;;;;;;1.99;60.81;98410.53;1708231;82;21129;-68
2021/01/27 11:25:53;;;;;;;13.55;8.08;;;;;;;1.97;60.93;98415.05;1717959;82;21733;-68
2021/01/27 11:28:22;;;;;;;12.13;8.25;;;;;;;1.99;61.13;98415.75;1708647;81;21212;-79
2021/01/27 11:30:51;;;;;;;12.45;8.00;;;;;;;1.99;61.19;98408.75;1739833;82;21181;-74
2021/01/27 11:33:21;;;;;;;15.15;8.70;;;;;;;2.00;61.27;98410.87;1738738;82;21283;-73
2021/01/27 11:35:49;;;;;;;19.40;8.35;;;;;;;2.00;61.28;98410.87;1741393;82;21176;-73
2021/01/27 11:38:18;;;;;;;17.42;8.58;;;;;;;1.98;61.17;98409.69;1741844;82;21164;-72
2021/01/27 11:40:46;;;;;;;14.70;8.50;;;;;;;1.97;61.34;98413.27;1740659;82;21569;-72
2021/01/27 11:43:15;;;;;;;12.82;8.23;;;;;;;1.98;61.11;98417.51;1718203;82;21184;-72
2021/01/27 11:45:43;;;;;;;14.35;8.48;;;;;;;1.99;61.05;98417.05;1726238;82;21588;-73
2021/01/27 11:48:14;;;;;;;14.95;9.05;;;;;;;1.98;61.13;98412.29;1725364;82;21176;-73
2021/01/27 11:50:44;;;;;;;12.13;8.05;;;;;;;1.99;61.17;98408.75;1707717;82;21153;-73
2021/01/27 11:53:11;;;;;;;12.37;7.83;;;;;;;1.97;61.20;98406.74;1721204;82;21171;-72
2021/01/27 11:55:39;;;;;;;13.05;7.05;;;;;;;1.94;61.75;98404.38;1725877;82;21176;-73
2021/01/27 11:58:07;;;;;;;14.25;7.55;;;;;;;1.89;61.74;98408.67;1722429;82;21166;-72
2021/01/27 12:00:35;;;;;;;13.80;7.80;;;;;;;1.86;61.75;98400.27;1726783;82;21538;-73
2021/01/27 12:03:04;;;;;;;12.40;7.42;;;;;;;1.82;61.76;98402.78;1712335;82;21605;-74
2021/01/27 12:05:33;;;;;;;13.25;7.95;;;;;;;1.80;61.88;98396.86;1718516;82;21346;-73
2021/01/27 12:08:00;;;;;;;11.18;7.37;;;;;;;1.79;61.94;98397.80;1724536;82;21168;-72
2021/01/27 12:10:28;;;;;;;11.60;7.03;;;;;;;1.80;61.81;98396.86;1717814;82;21723;-71
2021/01/27 12:12:56;;;;;;;13.78;7.08;;;;;;;1.79;61.68;98406.92;1718048;82;21161;-71
2021/01/27 12:15:24;;;;;;;12.80;7.10;;;;;;;1.77;61.45;98399.70;1732914;82;21153;-70